createdAt,value
2019-02-11T00:02:13.715Z,5.80
2019-02-11T00:05:17.934Z,5.80
2019-02-11T00:08:21.983Z,5.80
2019-02-11T00:11:26.102Z,5.80
2019-02-11T00:14:30.307Z,5.80
2019-02-11T00:17:34.467Z,5.90
2019-02-11T00:20:38.611Z,5.90
2019-02-11T00:23:42.688Z,5.90
2019-02-11T00:26:46.811Z,5.90
2019-02-11T00:29:50.996Z,5.90
2019-02-11T00:32:55.317Z,5.90
2019-02-11T00:35:59.580Z,5.80
2019-02-11T00:39:04.521Z,5.80
2019-02-11T00:42:08.678Z,5.90
2019-02-11T00:45:12.875Z,5.90
2019-02-11T00:48:17.108Z,5.90
2019-02-11T00:51:21.230Z,5.80
2019-02-11T00:54:25.394Z,5.80
2019-02-11T00:57:29.529Z,5.80
2019-02-11T01:00:33.603Z,5.80
2019-02-11T01:03:37.736Z,5.80
2019-02-11T01:06:42.888Z,5.80
2019-02-11T01:09:47.072Z,5.80
2019-02-11T01:12:51.172Z,5.80
2019-02-11T01:15:55.375Z,5.80
2019-02-11T01:18:59.543Z,5.70
2019-02-11T01:22:03.841Z,5.70
2019-02-11T01:25:08.268Z,5.70
2019-02-11T01:28:12.379Z,5.70
2019-02-11T01:31:16.472Z,5.70
2019-02-11T01:34:20.672Z,5.70
2019-02-11T01:37:24.797Z,5.70
2019-02-11T01:40:28.944Z,5.70
2019-02-11T01:43:36.147Z,5.70
2019-02-11T01:46:38.975Z,5.70
2019-02-11T01:49:43.137Z,5.70
2019-02-11T01:52:47.373Z,5.70
2019-02-11T01:55:51.472Z,5.80
2019-02-11T01:58:55.584Z,5.80
2019-02-11T02:01:59.663Z,5.80
2019-02-11T02:05:03.780Z,5.80
2019-02-11T02:08:07.903Z,5.80
2019-02-11T02:11:12.011Z,5.80
2019-02-11T02:14:16.181Z,5.80
2019-02-11T02:17:20.300Z,5.80
2019-02-11T02:20:24.379Z,5.80
2019-02-11T02:23:28.488Z,5.90
2019-02-11T02:26:32.566Z,5.80
2019-02-11T02:29:36.678Z,5.90
2019-02-11T02:32:40.756Z,5.80
2019-02-11T02:35:44.925Z,5.80
2019-02-11T02:38:49.136Z,5.80
2019-02-11T02:41:53.341Z,5.80
2019-02-11T02:44:57.511Z,5.80
2019-02-11T02:48:01.710Z,5.80
2019-02-11T02:51:05.890Z,5.80
2019-02-11T02:54:12.069Z,5.80
2019-02-11T02:57:15.950Z,5.80
2019-02-11T03:00:20.048Z,5.80
2019-02-11T03:03:24.132Z,5.80
2019-02-11T03:06:28.318Z,5.70
2019-02-11T03:09:32.433Z,5.70
2019-02-11T03:12:36.643Z,5.70
2019-02-11T03:15:40.731Z,5.70
2019-02-11T03:18:44.870Z,5.70
2019-02-11T03:21:49.017Z,5.70
2019-02-11T03:24:53.134Z,5.70
2019-02-11T03:27:57.228Z,5.70
2019-02-11T03:31:01.403Z,5.70
2019-02-11T03:34:05.547Z,5.70
2019-02-11T03:37:09.725Z,5.60
2019-02-11T03:40:13.992Z,5.60
2019-02-11T03:43:18.400Z,5.70
2019-02-11T03:46:22.490Z,5.70
2019-02-11T03:49:26.684Z,5.70
2019-02-11T03:52:30.793Z,5.60
2019-02-11T03:55:34.957Z,5.60
2019-02-11T03:58:39.046Z,5.60
2019-02-11T04:01:43.234Z,5.60
2019-02-11T04:04:47.391Z,5.60
2019-02-11T04:07:51.520Z,5.60
2019-02-11T04:10:55.651Z,5.70
2019-02-11T04:13:59.855Z,5.70
2019-02-11T04:17:03.961Z,5.70
2019-02-11T04:20:08.161Z,5.70
2019-02-11T04:23:12.248Z,5.70
2019-02-11T04:26:16.443Z,5.70
2019-02-11T04:29:20.543Z,5.70
2019-02-11T04:32:24.724Z,5.70
2019-02-11T04:35:28.798Z,5.70
2019-02-11T04:38:32.914Z,5.70
2019-02-11T04:41:37.125Z,5.70
2019-02-11T04:44:41.510Z,5.70
2019-02-11T04:47:45.694Z,5.70
2019-02-11T04:50:49.903Z,5.70
2019-02-11T04:53:53.969Z,5.70
2019-02-11T04:56:59.837Z,5.70
2019-02-11T05:00:04.344Z,5.70
2019-02-11T05:03:08.450Z,5.70
2019-02-11T05:06:12.549Z,5.70
2019-02-11T05:09:16.723Z,5.70
2019-02-11T05:12:20.811Z,5.70
2019-02-11T05:15:25.033Z,5.70
2019-02-11T05:18:29.189Z,5.70
2019-02-11T05:21:33.299Z,5.60
2019-02-11T05:24:37.351Z,5.60
2019-02-11T05:27:41.548Z,5.60
2019-02-11T05:30:45.696Z,5.60
2019-02-11T05:33:49.810Z,5.60
2019-02-11T05:36:53.977Z,5.60
2019-02-11T05:39:58.159Z,5.60
2019-02-11T05:43:02.308Z,5.50
2019-02-11T05:46:07.033Z,5.50
2019-02-11T05:49:11.175Z,5.50
2019-02-11T05:52:15.365Z,5.50
2019-02-11T05:55:19.440Z,5.50
2019-02-11T05:58:23.564Z,5.50
2019-02-11T06:01:27.639Z,5.50
2019-02-11T06:04:31.745Z,5.50
2019-02-11T06:07:35.921Z,5.50
2019-02-11T06:10:40.131Z,5.50
2019-02-11T06:13:44.228Z,5.50
2019-02-11T06:16:48.555Z,5.50
2019-02-11T06:19:52.649Z,5.50
2019-02-11T06:22:56.831Z,5.60
2019-02-11T06:26:00.937Z,5.60
2019-02-11T06:29:05.106Z,5.60
2019-02-11T06:32:09.201Z,5.60
2019-02-11T06:35:13.304Z,5.60
2019-02-11T06:38:17.395Z,5.60
2019-02-11T06:41:21.511Z,5.60
2019-02-11T06:44:25.614Z,5.70
2019-02-11T06:47:30.407Z,5.70
2019-02-11T06:50:34.500Z,5.70
2019-02-11T06:53:38.609Z,5.70
2019-02-11T06:56:42.621Z,5.70
2019-02-11T06:59:46.730Z,5.50
2019-02-11T07:02:50.749Z,5.50
2019-02-11T07:05:54.854Z,5.60
2019-02-11T07:08:58.979Z,5.60
2019-02-11T07:12:03.126Z,5.70
2019-02-11T07:15:09.215Z,5.70
2019-02-11T07:18:13.329Z,5.70
2019-02-11T07:21:17.492Z,5.70
2019-02-11T07:24:21.539Z,5.70
2019-02-11T07:27:25.648Z,5.70
2019-02-11T07:30:29.759Z,5.80
2019-02-11T07:34:03.976Z,5.80
2019-02-11T07:37:08.097Z,5.90
2019-02-11T07:40:12.262Z,5.90
2019-02-11T07:43:33.641Z,5.90
2019-02-11T07:46:51.188Z,5.90
2019-02-11T07:49:55.414Z,5.90
2019-02-11T07:53:00.432Z,6.00
2019-02-11T07:56:04.639Z,6.00
2019-02-11T07:59:08.725Z,6.00
2019-02-11T08:02:12.862Z,6.00
2019-02-11T08:05:17.094Z,6.10
2019-02-11T08:08:21.310Z,6.10
2019-02-11T08:11:25.457Z,6.10
2019-02-11T08:14:29.730Z,6.20
2019-02-11T08:17:33.836Z,6.20
2019-02-11T08:20:38.931Z,6.20
2019-02-11T08:23:43.104Z,6.20
2019-02-11T08:26:47.239Z,6.30
2019-02-11T08:29:51.321Z,6.20
2019-02-11T08:32:55.436Z,6.30
2019-02-11T08:35:59.520Z,6.30
2019-02-11T08:39:05.467Z,6.30
2019-02-11T08:42:09.551Z,6.30
2019-02-11T08:45:13.955Z,6.30
2019-02-11T08:48:18.132Z,6.40
2019-02-11T08:51:22.615Z,6.40
2019-02-11T08:54:26.767Z,6.40
2019-02-11T08:57:30.895Z,6.50
2019-02-11T09:00:34.979Z,6.50
2019-02-11T09:03:39.211Z,6.50
2019-02-11T09:06:43.491Z,6.60
2019-02-11T09:09:47.608Z,6.60
2019-02-11T09:12:51.761Z,6.70
2019-02-11T09:15:55.958Z,6.70
2019-02-11T09:19:00.037Z,6.70
2019-02-11T09:22:07.515Z,6.80
2019-02-11T09:25:10.459Z,6.80
2019-02-11T09:28:14.591Z,6.90
2019-02-11T09:31:18.744Z,6.90
2019-02-11T09:34:22.885Z,7.00
2019-02-11T09:37:27.029Z,7.10
2019-02-11T09:40:31.152Z,7.10
2019-02-11T09:43:35.260Z,7.20
2019-02-11T09:46:39.378Z,7.20
2019-02-11T09:49:43.558Z,7.20
2019-02-11T09:52:48.653Z,7.20
2019-02-11T09:55:52.840Z,7.20
2019-02-11T09:58:56.991Z,7.30
2019-02-11T10:02:01.149Z,7.30
2019-02-11T10:05:06.248Z,7.30
2019-02-11T10:08:10.319Z,7.30
2019-02-11T10:11:14.563Z,7.30
2019-02-11T10:14:18.789Z,7.30
2019-02-11T10:17:29.693Z,7.20
2019-02-11T10:20:28.747Z,7.20
2019-02-11T10:23:32.986Z,7.10
2019-02-11T10:26:37.144Z,7.10
2019-02-11T10:29:41.320Z,7.00
2019-02-11T10:32:45.574Z,6.90
2019-02-11T10:35:49.897Z,6.90
2019-02-11T10:38:54.103Z,6.90
2019-02-11T10:41:58.350Z,7.00
2019-02-11T10:45:02.648Z,7.00
2019-02-11T10:48:06.981Z,7.00
2019-02-11T10:51:11.141Z,7.10
2019-02-11T10:54:15.309Z,7.10
2019-02-11T10:57:19.471Z,7.20
2019-02-11T11:00:23.771Z,7.20
2019-02-11T11:03:28.051Z,7.20
2019-02-11T11:06:32.240Z,7.30
2019-02-11T11:09:36.391Z,7.30
2019-02-11T11:12:40.664Z,7.20
2019-02-11T11:15:44.869Z,7.20
2019-02-11T11:18:49.056Z,7.20
2019-02-11T11:21:53.140Z,7.10
2019-02-11T11:24:58.215Z,7.10
2019-02-11T11:28:03.189Z,7.00
2019-02-11T11:31:10.354Z,6.90
2019-02-11T11:34:14.512Z,6.90
2019-02-11T11:37:23.208Z,6.90
2019-02-11T11:40:29.394Z,6.90
2019-02-11T11:43:33.394Z,6.90
2019-02-11T11:46:45.753Z,6.90
2019-02-11T11:49:43.299Z,6.90
2019-02-11T11:52:47.457Z,6.90
2019-02-11T11:55:52.136Z,6.90
2019-02-11T11:58:56.331Z,6.90
2019-02-11T12:02:00.570Z,6.80
2019-02-11T12:05:04.968Z,6.70
2019-02-11T12:08:09.193Z,6.70
2019-02-11T12:11:13.417Z,6.60
2019-02-11T12:14:17.655Z,6.50
2019-02-11T12:17:21.825Z,6.60
2019-02-11T12:20:26.140Z,6.40
2019-02-11T12:23:30.232Z,6.40
2019-02-11T12:26:34.638Z,6.40
2019-02-11T12:29:38.800Z,6.30
2019-02-11T12:32:42.925Z,6.30
2019-02-11T12:35:47.112Z,6.30
2019-02-11T12:38:51.255Z,6.20
2019-02-11T12:41:55.457Z,6.20
2019-02-11T12:44:59.658Z,6.20
2019-02-11T12:48:15.372Z,6.20
2019-02-11T12:51:19.559Z,6.10
2019-02-11T12:54:23.746Z,6.10
2019-02-11T12:57:27.978Z,6.00
2019-02-11T13:00:32.132Z,6.00
2019-02-11T13:03:36.343Z,6.00
2019-02-11T13:06:43.425Z,5.90
2019-02-11T13:09:47.651Z,5.90
2019-02-11T13:12:51.868Z,5.90
2019-02-11T13:16:01.904Z,5.90
2019-02-11T13:19:03.841Z,5.90
2019-02-11T13:22:08.072Z,5.80
2019-02-11T13:25:13.492Z,5.80
2019-02-11T13:28:17.780Z,5.70
2019-02-11T13:31:22.090Z,5.70
2019-02-11T13:34:26.320Z,5.70
2019-02-11T13:37:30.493Z,5.70
2019-02-11T13:40:34.702Z,5.70
2019-02-11T13:43:38.902Z,5.60
2019-02-11T13:46:43.109Z,5.60
2019-02-11T13:49:47.517Z,5.60
2019-02-11T13:52:52.446Z,5.60
2019-02-11T13:55:56.760Z,5.60
2019-02-11T13:59:01.647Z,5.60
2019-02-11T14:02:05.817Z,5.60
2019-02-11T14:05:10.043Z,5.60
2019-02-11T14:08:14.199Z,5.60
2019-02-11T14:11:18.618Z,5.60
2019-02-11T14:14:28.633Z,5.60
2019-02-11T14:17:32.835Z,5.60
2019-02-11T14:20:37.090Z,5.50
2019-02-11T14:23:41.321Z,5.60
2019-02-11T14:26:45.512Z,5.60
2019-02-11T14:29:49.710Z,5.60
2019-02-11T14:32:53.844Z,5.60
2019-02-11T14:35:58.076Z,5.60
2019-02-11T14:39:07.435Z,5.70
2019-02-11T14:42:15.029Z,5.70
2019-02-11T14:45:19.202Z,5.70
2019-02-11T14:48:28.226Z,5.70
2019-02-11T14:51:30.936Z,5.70
2019-02-11T14:54:35.079Z,5.70
2019-02-11T14:57:39.331Z,5.60
2019-02-11T15:00:44.391Z,5.60
2019-02-11T15:03:48.945Z,5.60
2019-02-11T15:06:53.135Z,5.60
2019-02-11T15:09:57.315Z,5.70
2019-02-11T15:13:04.532Z,5.60
2019-02-11T15:16:08.938Z,5.60
2019-02-11T15:19:13.174Z,5.60
2019-02-11T15:22:17.361Z,5.60
2019-02-11T15:25:21.570Z,5.60
2019-02-11T15:28:25.762Z,5.60
2019-02-11T15:31:30.019Z,5.60
2019-02-11T15:34:34.183Z,5.60
2019-02-11T15:37:38.380Z,5.60
2019-02-11T15:40:42.536Z,5.50
2019-02-11T15:43:46.656Z,5.60
2019-02-11T15:46:50.825Z,5.50
2019-02-11T15:49:55.023Z,5.60
2019-02-11T15:52:59.216Z,5.60
2019-02-11T15:56:07.948Z,5.50
2019-02-11T15:59:09.410Z,5.50
2019-02-11T16:02:14.158Z,5.50
2019-02-11T16:05:18.354Z,5.60
2019-02-11T16:08:22.818Z,5.50
2019-02-11T16:11:27.050Z,5.50
2019-02-11T16:14:31.533Z,5.50
2019-02-11T16:17:36.271Z,5.50
2019-02-11T16:20:40.486Z,5.50
2019-02-11T16:23:44.654Z,5.50
2019-02-11T16:26:48.867Z,5.50
2019-02-11T16:29:53.052Z,5.50
2019-02-11T16:32:57.176Z,5.50
2019-02-11T16:36:01.296Z,5.50
2019-02-11T16:39:05.831Z,5.50
2019-02-11T16:42:10.321Z,5.50
2019-02-11T16:45:14.600Z,5.50
2019-02-11T16:48:19.101Z,5.50
2019-02-11T16:51:23.299Z,5.50
2019-02-11T16:54:27.518Z,5.50
2019-02-11T16:57:32.119Z,5.50
2019-02-11T17:00:36.665Z,5.50
2019-02-11T17:03:42.202Z,5.50
2019-02-11T17:06:46.407Z,5.50
2019-02-11T17:09:50.616Z,5.50
2019-02-11T17:12:54.973Z,5.40
2019-02-11T17:15:59.286Z,5.40
2019-02-11T17:19:09.175Z,5.40
2019-02-11T17:22:09.401Z,5.40
2019-02-11T17:25:13.538Z,5.40
2019-02-11T17:28:17.854Z,5.30
2019-02-11T17:31:22.052Z,5.30
2019-02-11T17:34:27.440Z,5.30
2019-02-11T17:37:31.755Z,5.20
2019-02-11T17:40:36.014Z,5.20
2019-02-11T17:43:40.238Z,5.20
2019-02-11T17:46:44.908Z,5.20
2019-02-11T17:49:49.326Z,5.20
2019-02-11T17:52:54.182Z,5.10
2019-02-11T17:55:58.350Z,5.20
2019-02-11T17:59:02.724Z,5.20
2019-02-11T18:02:10.232Z,5.10
2019-02-11T18:05:15.315Z,5.10
2019-02-11T18:08:19.489Z,5.10
2019-02-11T18:11:23.722Z,5.10
2019-02-11T18:14:27.968Z,5.00
2019-02-11T18:17:32.225Z,5.00
2019-02-11T18:20:36.526Z,4.90
2019-02-11T18:23:40.743Z,4.90
2019-02-11T18:26:44.921Z,4.90
2019-02-11T18:29:49.076Z,4.90
2019-02-11T18:32:53.264Z,4.80
2019-02-11T18:35:57.952Z,4.80
2019-02-11T18:39:02.101Z,4.80
2019-02-11T18:42:06.629Z,4.80
2019-02-11T18:45:12.392Z,4.90
2019-02-11T18:48:16.562Z,4.80
2019-02-11T18:51:21.623Z,4.90
2019-02-11T18:54:25.834Z,4.90
2019-02-11T18:57:30.329Z,4.90
2019-02-11T19:00:35.881Z,4.90
2019-02-11T19:03:40.075Z,5.00
2019-02-11T19:06:44.605Z,4.90
2019-02-11T19:09:48.830Z,4.90
2019-02-11T19:12:52.976Z,4.90
2019-02-11T19:15:57.190Z,4.90
2019-02-11T19:19:01.397Z,4.90
2019-02-11T19:22:05.570Z,4.90
2019-02-11T19:25:10.087Z,5.00
2019-02-11T19:28:14.190Z,5.00
2019-02-11T19:31:18.317Z,5.00
2019-02-11T19:34:22.506Z,5.00
2019-02-11T19:37:26.717Z,5.00
2019-02-11T19:40:32.041Z,5.00
2019-02-11T19:43:36.203Z,5.00
2019-02-11T19:46:40.405Z,5.00
2019-02-11T19:49:51.822Z,5.00
2019-02-11T19:52:50.577Z,4.90
2019-02-11T19:55:54.803Z,4.90
2019-02-11T19:58:58.982Z,5.00
2019-02-11T20:02:03.266Z,5.00
2019-02-11T20:05:08.345Z,5.00
2019-02-11T20:08:12.997Z,5.00
2019-02-11T20:11:17.126Z,5.00
2019-02-11T20:14:24.140Z,4.90
2019-02-11T20:17:28.346Z,4.80
2019-02-11T20:20:32.607Z,4.90
2019-02-11T20:23:36.856Z,4.90
2019-02-11T20:26:41.278Z,5.00
2019-02-11T20:29:47.205Z,4.90
2019-02-11T20:32:51.524Z,5.00
2019-02-11T20:35:56.065Z,5.00
2019-02-11T20:39:00.746Z,5.00
2019-02-11T20:42:04.959Z,5.00
2019-02-11T20:45:12.189Z,5.00
2019-02-11T20:48:16.364Z,5.00
2019-02-11T20:51:20.689Z,5.00
2019-02-11T20:54:25.211Z,5.00
2019-02-11T20:57:29.624Z,5.00
2019-02-11T21:00:33.772Z,5.00
2019-02-11T21:03:37.967Z,5.00
2019-02-11T21:06:42.185Z,5.00
2019-02-11T21:09:46.493Z,5.00
2019-02-11T21:12:51.165Z,5.00
2019-02-11T21:15:55.408Z,5.00
2019-02-11T21:18:59.549Z,4.90
2019-02-11T21:22:03.754Z,5.00
2019-02-11T21:25:08.421Z,5.00
2019-02-11T21:28:12.715Z,4.90
2019-02-11T21:31:16.908Z,5.00
2019-02-11T21:34:21.139Z,5.00
2019-02-11T21:37:25.304Z,5.00
2019-02-11T21:40:29.465Z,5.00
2019-02-11T21:43:33.661Z,4.90
2019-02-11T21:46:37.796Z,4.90
2019-02-11T21:49:41.899Z,4.90
2019-02-11T21:52:46.116Z,4.90
2019-02-11T21:55:50.249Z,4.90
2019-02-11T21:58:54.415Z,4.90
2019-02-11T22:01:58.586Z,4.90
2019-02-11T22:05:02.777Z,4.90
2019-02-11T22:08:07.015Z,5.00
2019-02-11T22:11:11.299Z,4.90
2019-02-11T22:14:15.482Z,4.90
2019-02-11T22:17:19.696Z,5.00
2019-02-11T22:20:23.917Z,5.00
2019-02-11T22:23:28.131Z,5.00
2019-02-11T22:26:32.360Z,4.90
2019-02-11T22:29:36.585Z,5.00
2019-02-11T22:32:40.771Z,5.00
2019-02-11T22:35:46.193Z,5.00
2019-02-11T22:38:50.399Z,5.00
2019-02-11T22:41:54.968Z,4.90
2019-02-11T22:44:59.072Z,5.00
2019-02-11T22:48:03.197Z,4.90
2019-02-11T22:51:07.405Z,5.00
2019-02-11T22:54:11.600Z,4.90
2019-02-11T22:57:15.854Z,5.00
2019-02-11T23:00:49.707Z,5.00
2019-02-11T23:03:53.798Z,4.90
2019-02-11T23:06:57.920Z,4.90
2019-02-11T23:10:02.171Z,4.90
2019-02-11T23:13:06.378Z,4.80
2019-02-11T23:16:10.573Z,4.80
2019-02-11T23:19:14.762Z,4.80
2019-02-11T23:22:18.898Z,4.90
2019-02-11T23:25:23.090Z,4.80
2019-02-11T23:28:27.323Z,4.90
2019-02-11T23:31:31.536Z,4.80
2019-02-11T23:34:35.652Z,4.70
2019-02-11T23:37:39.754Z,4.70
2019-02-11T23:40:43.851Z,4.70
2019-02-11T23:43:48.053Z,4.70
2019-02-11T23:46:52.220Z,4.70
2019-02-11T23:49:56.369Z,4.70
2019-02-11T23:53:00.561Z,4.60
2019-02-11T23:56:04.789Z,4.70
2019-02-11T23:59:09.011Z,4.60
